sensor_id;sensor_type;location;lat;lon;timestamp;pressure;altitude;pressure_sealevel;temperature;humidity
40948;BME280;49382;-25.924;28.194;2023-02-15T00:01:55;84887.06;;;22.21;48.35
40948;BME280;49382;-25.924;28.194;2023-02-15T00:04:21;84878.82;;;21.76;49.19
40948;BME280;49382;-25.924;28.194;2023-02-15T00:06:45;84872.88;;;20.78;50.26
40948;BME280;49382;-25.924;28.194;2023-02-15T00:09:12;84869.87;;;21.64;49.63
40948;BME280;49382;-25.924;28.194;2023-02-15T00:11:37;84863.01;;;20.99;51.06
40948;BME280;49382;-25.924;28.194;2023-02-15T00:14:03;84859.48;;;21.17;49.81
40948;BME280;49382;-25.924;28.194;2023-02-15T00:16:28;84852.32;;;21.00;51.39
40948;BME280;49382;-25.924;28.194;2023-02-15T00:18:54;84849.32;;;21.06;51.78
40948;BME280;49382;-25.924;28.194;2023-02-15T00:21:19;84843.85;;;21.16;51.40
40948;BME280;49382;-25.924;28.194;2023-02-15T00:23:45;84843.83;;;20.62;52.43
40948;BME280;49382;-25.924;28.194;2023-02-15T00:26:12;84837.62;;;20.28;51.84
40948;BME280;49382;-25.924;28.194;2023-02-15T00:28:36;84833.73;;;20.96;52.13
40948;BME280;49382;-25.924;28.194;2023-02-15T00:31:06;84837.56;;;20.55;52.74
40948;BME280;49382;-25.924;28.194;2023-02-15T00:33:26;84834.39;;;20.72;51.94
40948;BME280;49382;-25.924;28.194;2023-02-15T00:35:57;84832.70;;;21.17;51.49
40948;BME280;49382;-25.924;28.194;2023-02-15T00:38:17;84832.19;;;21.47;50.38
40948;BME280;49382;-25.924;28.194;2023-02-15T00:40:42;84834.42;;;21.34;51.56
40948;BME280;49382;-25.924;28.194;2023-02-15T00:43:07;84829.30;;;20.86;51.99
40948;BME280;49382;-25.924;28.194;2023-02-15T00:45:32;84829.96;;;20.88;51.78
40948;BME280;49382;-25.924;28.194;2023-02-15T00:47:57;84829.30;;;20.56;53.08
40948;BME280;49382;-25.924;28.194;2023-02-15T00:50:22;84827.05;;;19.90;53.94
40948;BME280;49382;-25.924;28.194;2023-02-15T00:52:48;84827.14;;;20.19;54.21
40948;BME280;49382;-25.924;28.194;2023-02-15T00:55:13;84821.44;;;20.10;54.71
40948;BME280;49382;-25.924;28.194;2023-02-15T00:57:38;84825.85;;;19.29;56.73
40948;BME280;49382;-25.924;28.194;2023-02-15T01:00:05;84832.13;;;19.07;57.13
40948;BME280;49382;-25.924;28.194;2023-02-15T01:02:30;84833.46;;;19.48;56.38
40948;BME280;49382;-25.924;28.194;2023-02-15T01:04:55;84834.89;;;19.64;56.84
40948;BME280;49382;-25.924;28.194;2023-02-15T01:07:21;84830.06;;;19.72;56.45
40948;BME280;49382;-25.924;28.194;2023-02-15T01:09:47;84825.07;;;19.94;55.81
40948;BME280;49382;-25.924;28.194;2023-02-15T01:12:13;84822.02;;;21.66;51.33
40948;BME280;49382;-25.924;28.194;2023-02-15T01:14:39;84815.46;;;20.39;53.95
40948;BME280;49382;-25.924;28.194;2023-02-15T01:17:04;84812.45;;;20.35;54.37
40948;BME280;49382;-25.924;28.194;2023-02-15T01:19:30;84807.23;;;20.03;55.13
40948;BME280;49382;-25.924;28.194;2023-02-15T01:21:55;84804.65;;;19.47;56.70
40948;BME280;49382;-25.924;28.194;2023-02-15T01:24:20;84802.31;;;20.06;55.46
40948;BME280;49382;-25.924;28.194;2023-02-15T01:26:46;84796.72;;;20.14;55.18
40948;BME280;49382;-25.924;28.194;2023-02-15T01:29:11;84796.00;;;19.93;55.48
40948;BME280;49382;-25.924;28.194;2023-02-15T01:31:36;84789.28;;;19.89;56.05
40948;BME280;49382;-25.924;28.194;2023-02-15T01:34:02;84785.37;;;20.51;53.94
40948;BME280;49382;-25.924;28.194;2023-02-15T01:36:27;84778.51;;;20.27;54.18
40948;BME280;49382;-25.924;28.194;2023-02-15T01:38:52;84777.52;;;20.64;53.28
40948;BME280;49382;-25.924;28.194;2023-02-15T01:41:18;84777.67;;;20.41;53.97
40948;BME280;49382;-25.924;28.194;2023-02-15T01:43:45;84769.98;;;21.75;51.51
40948;BME280;49382;-25.924;28.194;2023-02-15T01:46:11;84768.62;;;21.32;52.05
40948;BME280;49382;-25.924;28.194;2023-02-15T01:48:34;84768.36;;;20.70;53.19
40948;BME280;49382;-25.924;28.194;2023-02-15T01:51:02;84766.09;;;20.58;53.99
40948;BME280;49382;-25.924;28.194;2023-02-15T01:53:28;84765.08;;;20.33;54.51
40948;BME280;49382;-25.924;28.194;2023-02-15T01:55:53;84762.55;;;20.09;55.08
40948;BME280;49382;-25.924;28.194;2023-02-15T01:58:17;84760.72;;;20.56;54.03
40948;BME280;49382;-25.924;28.194;2023-02-15T02:00:42;84760.02;;;20.36;54.31
40948;BME280;49382;-25.924;28.194;2023-02-15T02:03:07;84758.05;;;20.09;55.11
40948;BME280;49382;-25.924;28.194;2023-02-15T02:05:33;84757.16;;;20.09;55.24
40948;BME280;49382;-25.924;28.194;2023-02-15T02:07:59;84754.69;;;20.38;54.72
40948;BME280;49382;-25.924;28.194;2023-02-15T02:10:24;84756.52;;;20.51;54.22
40948;BME280;49382;-25.924;28.194;2023-02-15T02:12:51;84752.49;;;22.16;50.21
40948;BME280;49382;-25.924;28.194;2023-02-15T02:15:15;84753.77;;;20.53;52.53
40948;BME280;49382;-25.924;28.194;2023-02-15T02:17:51;84751.86;;;20.43;53.14
40948;BME280;49382;-25.924;28.194;2023-02-15T02:20:17;84751.58;;;19.74;55.22
40948;BME280;49382;-25.924;28.194;2023-02-15T02:25:07;84754.51;;;20.28;55.61
40948;BME280;49382;-25.924;28.194;2023-02-15T02:27:35;84757.26;;;20.58;54.36
40948;BME280;49382;-25.924;28.194;2023-02-15T02:34:45;84761.31;;;20.10;55.33
40948;BME280;49382;-25.924;28.194;2023-02-15T02:37:12;84764.62;;;20.21;55.55
40948;BME280;49382;-25.924;28.194;2023-02-15T02:39:39;84764.98;;;19.78;55.73
40948;BME280;49382;-25.924;28.194;2023-02-15T02:42:04;84768.14;;;19.84;56.38
40948;BME280;49382;-25.924;28.194;2023-02-15T02:44:28;84769.35;;;19.61;57.00
40948;BME280;49382;-25.924;28.194;2023-02-15T02:46:53;84766.74;;;19.41;56.88
40948;BME280;49382;-25.924;28.194;2023-02-15T02:49:15;84770.06;;;19.09;57.29
40948;BME280;49382;-25.924;28.194;2023-02-15T02:51:41;84772.89;;;19.12;57.26
40948;BME280;49382;-25.924;28.194;2023-02-15T02:54:07;84775.77;;;18.56;58.21
40948;BME280;49382;-25.924;28.194;2023-02-15T02:56:36;84770.29;;;19.01;58.18
40948;BME280;49382;-25.924;28.194;2023-02-15T02:59:01;84768.38;;;18.73;58.53
40948;BME280;49382;-25.924;28.194;2023-02-15T03:01:28;84764.92;;;19.62;57.99
40948;BME280;49382;-25.924;28.194;2023-02-15T03:03:52;84763.21;;;19.23;58.29
40948;BME280;49382;-25.924;28.194;2023-02-15T03:06:19;84762.94;;;19.39;58.04
40948;BME280;49382;-25.924;28.194;2023-02-15T03:08:44;84763.63;;;19.83;56.90
40948;BME280;49382;-25.924;28.194;2023-02-15T03:11:08;84767.41;;;19.98;56.26
40948;BME280;49382;-25.924;28.194;2023-02-15T03:13:33;84770.25;;;19.73;56.76
40948;BME280;49382;-25.924;28.194;2023-02-15T03:16:01;84772.77;;;20.35;54.85
40948;BME280;49382;-25.924;28.194;2023-02-15T03:18:27;84772.73;;;19.47;56.80
40948;BME280;49382;-25.924;28.194;2023-02-15T03:20:51;84774.95;;;19.21;57.17
40948;BME280;49382;-25.924;28.194;2023-02-15T03:23:20;84773.86;;;21.32;52.68
40948;BME280;49382;-25.924;28.194;2023-02-15T03:25:44;84779.15;;;20.19;53.93
40948;BME280;49382;-25.924;28.194;2023-02-15T03:28:11;84784.53;;;19.79;54.76
40948;BME280;49382;-25.924;28.194;2023-02-15T03:30:35;84786.93;;;20.90;52.90
40948;BME280;49382;-25.924;28.194;2023-02-15T03:33:00;84789.25;;;20.29;54.01
40948;BME280;49382;-25.924;28.194;2023-02-15T03:35:29;84792.03;;;20.61;53.36
40948;BME280;49382;-25.924;28.194;2023-02-15T03:37:55;84797.89;;;20.16;54.47
40948;BME280;49382;-25.924;28.194;2023-02-15T03:40:19;84798.13;;;19.63;55.22
40948;BME280;49382;-25.924;28.194;2023-02-15T03:42:43;84810.57;;;20.14;53.50
40948;BME280;49382;-25.924;28.194;2023-02-15T03:45:10;84811.85;;;19.41;54.78
40948;BME280;49382;-25.924;28.194;2023-02-15T03:47:36;84820.15;;;19.04;55.78
40948;BME280;49382;-25.924;28.194;2023-02-15T03:50:03;84818.51;;;20.45;53.84
40948;BME280;49382;-25.924;28.194;2023-02-15T03:52:27;84818.71;;;19.94;54.38
40948;BME280;49382;-25.924;28.194;2023-02-15T03:54:51;84822.85;;;19.56;54.84
40948;BME280;49382;-25.924;28.194;2023-02-15T03:57:19;84825.84;;;19.91;54.60
40948;BME280;49382;-25.924;28.194;2023-02-15T03:59:43;84827.37;;;19.74;55.00
40948;BME280;49382;-25.924;28.194;2023-02-15T04:02:14;84827.43;;;19.53;55.08
40948;BME280;49382;-25.924;28.194;2023-02-15T04:04:37;84834.55;;;19.96;54.52
40948;BME280;49382;-25.924;28.194;2023-02-15T04:07:00;84840.95;;;19.92;54.81
40948;BME280;49382;-25.924;28.194;2023-02-15T04:09:25;84841.41;;;19.57;54.98
40948;BME280;49382;-25.924;28.194;2023-02-15T04:11:50;84847.25;;;19.60;55.40
40948;BME280;49382;-25.924;28.194;2023-02-15T04:14:16;84850.50;;;19.39;55.07
40948;BME280;49382;-25.924;28.194;2023-02-15T04:16:42;84853.69;;;19.49;55.21
40948;BME280;49382;-25.924;28.194;2023-02-15T04:19:08;84858.39;;;19.80;55.20
40948;BME280;49382;-25.924;28.194;2023-02-15T04:21:34;84864.75;;;19.76;55.76
40948;BME280;49382;-25.924;28.194;2023-02-15T04:23:59;84868.67;;;20.69;53.88
40948;BME280;49382;-25.924;28.194;2023-02-15T04:26:25;84869.71;;;21.95;51.02
40948;BME280;49382;-25.924;28.194;2023-02-15T04:28:51;84869.58;;;21.33;52.28
40948;BME280;49382;-25.924;28.194;2023-02-15T04:31:17;84867.29;;;21.24;52.41
40948;BME280;49382;-25.924;28.194;2023-02-15T04:33:42;84866.78;;;20.85;53.37
40948;BME280;49382;-25.924;28.194;2023-02-15T04:36:08;84865.89;;;20.53;54.06
40948;BME280;49382;-25.924;28.194;2023-02-15T04:38:34;84869.52;;;20.06;55.40
40948;BME280;49382;-25.924;28.194;2023-02-15T04:41:00;84869.65;;;20.35;55.58
40948;BME280;49382;-25.924;28.194;2023-02-15T04:43:25;84870.15;;;20.01;56.73
40948;BME280;49382;-25.924;28.194;2023-02-15T04:45:52;84874.22;;;20.54;55.82
40948;BME280;49382;-25.924;28.194;2023-02-15T04:48:17;84883.67;;;21.02;54.15
40948;BME280;49382;-25.924;28.194;2023-02-15T04:50:44;84891.05;;;20.88;54.97
40948;BME280;49382;-25.924;28.194;2023-02-15T04:53:08;84891.71;;;20.51;54.89
40948;BME280;49382;-25.924;28.194;2023-02-15T04:55:33;84893.47;;;21.85;52.24
40948;BME280;49382;-25.924;28.194;2023-02-15T04:57:58;84896.72;;;21.55;52.87
40948;BME280;49382;-25.924;28.194;2023-02-15T05:00:24;84896.81;;;21.42;52.89
40948;BME280;49382;-25.924;28.194;2023-02-15T05:02:50;84900.38;;;22.32;51.78
40948;BME280;49382;-25.924;28.194;2023-02-15T05:05:16;84901.25;;;22.46;52.09
40948;BME280;49382;-25.924;28.194;2023-02-15T05:07:41;84899.37;;;21.08;52.65
40948;BME280;49382;-25.924;28.194;2023-02-15T05:10:08;84903.99;;;22.39;50.22
40948;BME280;49382;-25.924;28.194;2023-02-15T05:12:32;84902.81;;;22.34;50.00
40948;BME280;49382;-25.924;28.194;2023-02-15T05:14:58;84900.77;;;21.57;52.46
40948;BME280;49382;-25.924;28.194;2023-02-15T05:17:24;84906.59;;;22.66;50.81
40948;BME280;49382;-25.924;28.194;2023-02-15T05:19:50;84905.30;;;22.80;49.09
40948;BME280;49382;-25.924;28.194;2023-02-15T05:22:16;84908.75;;;23.50;48.08
40948;BME280;49382;-25.924;28.194;2023-02-15T05:24:41;84908.79;;;22.81;48.82
40948;BME280;49382;-25.924;28.194;2023-02-15T05:27:10;84908.26;;;22.73;49.96
40948;BME280;49382;-25.924;28.194;2023-02-15T05:29:33;84909.87;;;23.45;48.67
40948;BME280;49382;-25.924;28.194;2023-02-15T05:31:59;84909.17;;;23.21;47.89
40948;BME280;49382;-25.924;28.194;2023-02-15T05:34:24;84915.82;;;23.82;48.11
40948;BME280;49382;-25.924;28.194;2023-02-15T05:36:50;84914.57;;;23.49;48.44
40948;BME280;49382;-25.924;28.194;2023-02-15T05:39:16;84921.27;;;24.37;48.12
40948;BME280;49382;-25.924;28.194;2023-02-15T05:41:41;84919.11;;;24.52;46.34
40948;BME280;49382;-25.924;28.194;2023-02-15T05:44:07;84925.70;;;24.59;47.67
40948;BME280;49382;-25.924;28.194;2023-02-15T05:46:33;84924.60;;;23.70;47.92
40948;BME280;49382;-25.924;28.194;2023-02-15T05:48:59;84925.22;;;24.01;48.04
40948;BME280;49382;-25.924;28.194;2023-02-15T05:51:24;84925.32;;;25.27;44.72
40948;BME280;49382;-25.924;28.194;2023-02-15T05:53:50;84927.48;;;22.53;49.70
40948;BME280;49382;-25.924;28.194;2023-02-15T05:56:16;84925.57;;;23.50;48.37
40948;BME280;49382;-25.924;28.194;2023-02-15T05:58:42;84926.89;;;24.16;47.06
40948;BME280;49382;-25.924;28.194;2023-02-15T06:01:09;84920.51;;;23.11;48.34
40948;BME280;49382;-25.924;28.194;2023-02-15T06:03:33;84925.77;;;24.31;46.53
40948;BME280;49382;-25.924;28.194;2023-02-15T06:05:59;84923.72;;;22.44;49.32
40948;BME280;49382;-25.924;28.194;2023-02-15T06:08:25;84925.18;;;24.35;46.06
40948;BME280;49382;-25.924;28.194;2023-02-15T06:10:50;84925.18;;;23.57;47.09
40948;BME280;49382;-25.924;28.194;2023-02-15T06:13:16;84923.67;;;22.78;48.48
40948;BME280;49382;-25.924;28.194;2023-02-15T06:15:42;84924.47;;;23.58;47.89
40948;BME280;49382;-25.924;28.194;2023-02-15T06:18:07;84922.48;;;23.45;47.76
40948;BME280;49382;-25.924;28.194;2023-02-15T06:20:33;84926.51;;;24.68;45.57
40948;BME280;49382;-25.924;28.194;2023-02-15T06:22:59;84921.92;;;24.31;45.96
40948;BME280;49382;-25.924;28.194;2023-02-15T06:25:25;84918.99;;;23.87;46.69
40948;BME280;49382;-25.924;28.194;2023-02-15T06:27:51;84919.02;;;23.54;47.36
40948;BME280;49382;-25.924;28.194;2023-02-15T06:30:17;84922.81;;;22.29;50.96
40948;BME280;49382;-25.924;28.194;2023-02-15T06:32:42;84922.78;;;22.37;50.33
40948;BME280;49382;-25.924;28.194;2023-02-15T06:35:08;84922.33;;;22.33;50.68
40948;BME280;49382;-25.924;28.194;2023-02-15T06:37:33;84920.09;;;22.54;49.48
40948;BME280;49382;-25.924;28.194;2023-02-15T06:39:58;84919.65;;;22.45;50.76
40948;BME280;49382;-25.924;28.194;2023-02-15T06:42:24;84920.43;;;24.12;47.99
40948;BME280;49382;-25.924;28.194;2023-02-15T06:44:50;84912.88;;;22.87;48.54
40948;BME280;49382;-25.924;28.194;2023-02-15T06:47:15;84911.96;;;22.52;50.75
40948;BME280;49382;-25.924;28.194;2023-02-15T06:49:41;84909.78;;;22.51;50.66
40948;BME280;49382;-25.924;28.194;2023-02-15T06:52:07;84912.48;;;24.04;47.88
40948;BME280;49382;-25.924;28.194;2023-02-15T06:54:33;84911.34;;;23.19;48.73
40948;BME280;49382;-25.924;28.194;2023-02-15T06:56:59;84908.98;;;22.89;49.25
40948;BME280;49382;-25.924;28.194;2023-02-15T06:59:24;84906.41;;;22.99;48.24
40948;BME280;49382;-25.924;28.194;2023-02-15T07:01:50;84911.58;;;24.93;46.19
40948;BME280;49382;-25.924;28.194;2023-02-15T07:04:16;84917.62;;;23.93;45.82
40948;BME280;49382;-25.924;28.194;2023-02-15T07:06:42;84916.22;;;22.62;48.14
40948;BME280;49382;-25.924;28.194;2023-02-15T07:09:07;84913.77;;;24.50;45.27
40948;BME280;49382;-25.924;28.194;2023-02-15T07:11:33;84911.90;;;24.85;44.07
40948;BME280;49382;-25.924;28.194;2023-02-15T07:13:59;84910.73;;;25.37;43.62
40948;BME280;49382;-25.924;28.194;2023-02-15T07:16:24;84910.58;;;23.72;45.44
40948;BME280;49382;-25.924;28.194;2023-02-15T07:18:50;84907.36;;;23.87;45.89
40948;BME280;49382;-25.924;28.194;2023-02-15T07:21:16;84906.46;;;22.66;47.53
40948;BME280;49382;-25.924;28.194;2023-02-15T07:23:41;84904.00;;;23.24;47.36
40948;BME280;49382;-25.924;28.194;2023-02-15T07:26:08;84903.93;;;22.91;47.08
40948;BME280;49382;-25.924;28.194;2023-02-15T07:28:34;84900.08;;;23.16;47.08
40948;BME280;49382;-25.924;28.194;2023-02-15T07:31:00;84904.25;;;23.54;46.20
40948;BME280;49382;-25.924;28.194;2023-02-15T07:33:24;84906.95;;;23.68;45.42
40948;BME280;49382;-25.924;28.194;2023-02-15T07:35:52;84899.69;;;22.95;46.88
40948;BME280;49382;-25.924;28.194;2023-02-15T07:38:16;84902.56;;;24.18;44.87
40948;BME280;49382;-25.924;28.194;2023-02-15T07:40:42;84895.12;;;23.27;46.65
40948;BME280;49382;-25.924;28.194;2023-02-15T07:43:07;84897.08;;;23.21;47.31
40948;BME280;49382;-25.924;28.194;2023-02-15T07:45:33;84899.16;;;23.28;46.63
40948;BME280;49382;-25.924;28.194;2023-02-15T07:48:00;84898.84;;;22.82;47.44
40948;BME280;49382;-25.924;28.194;2023-02-15T07:50:25;84901.48;;;23.88;45.65
40948;BME280;49382;-25.924;28.194;2023-02-15T07:52:50;84898.99;;;24.29;44.50
40948;BME280;49382;-25.924;28.194;2023-02-15T07:55:16;84897.24;;;23.28;46.71
40948;BME280;49382;-25.924;28.194;2023-02-15T07:57:43;84899.64;;;23.07;47.09
40948;BME280;49382;-25.924;28.194;2023-02-15T08:00:08;84897.40;;;22.89;48.01
40948;BME280;49382;-25.924;28.194;2023-02-15T08:02:33;84898.36;;;23.22;47.13
40948;BME280;49382;-25.924;28.194;2023-02-15T08:04:59;84901.44;;;23.77;48.29
40948;BME280;49382;-25.924;28.194;2023-02-15T08:07:25;84899.43;;;23.83;47.83
40948;BME280;49382;-25.924;28.194;2023-02-15T08:09:50;84900.66;;;23.46;49.51
40948;BME280;49382;-25.924;28.194;2023-02-15T08:12:16;84894.75;;;23.46;45.97
40948;BME280;49382;-25.924;28.194;2023-02-15T08:14:42;84894.47;;;24.93;44.46
40948;BME280;49382;-25.924;28.194;2023-02-15T08:17:07;84889.39;;;22.79;48.56
40948;BME280;49382;-25.924;28.194;2023-02-15T08:19:33;84889.69;;;23.56;47.25
40948;BME280;49382;-25.924;28.194;2023-02-15T08:22:01;84888.72;;;25.62;43.00
40948;BME280;49382;-25.924;28.194;2023-02-15T08:24:26;84885.13;;;24.56;45.80
40948;BME280;49382;-25.924;28.194;2023-02-15T08:26:51;84883.97;;;24.43;45.49
40948;BME280;49382;-25.924;28.194;2023-02-15T08:29:18;84882.47;;;25.78;42.99
40948;BME280;49382;-25.924;28.194;2023-02-15T08:31:42;84884.22;;;24.56;44.24
40948;BME280;49382;-25.924;28.194;2023-02-15T08:34:08;84886.12;;;24.10;45.03
40948;BME280;49382;-25.924;28.194;2023-02-15T08:36:33;84887.86;;;23.87;46.77
40948;BME280;49382;-25.924;28.194;2023-02-15T08:39:00;84880.47;;;22.99;49.46
40948;BME280;49382;-25.924;28.194;2023-02-15T08:41:26;84878.33;;;22.74;49.66
40948;BME280;49382;-25.924;28.194;2023-02-15T08:43:52;84882.01;;;23.79;48.37
40948;BME280;49382;-25.924;28.194;2023-02-15T08:46:17;84877.87;;;23.37;48.14
40948;BME280;49382;-25.924;28.194;2023-02-15T08:48:42;84871.60;;;23.93;46.17
40948;BME280;49382;-25.924;28.194;2023-02-15T08:51:10;84867.61;;;24.20;46.57
40948;BME280;49382;-25.924;28.194;2023-02-15T08:53:33;84865.61;;;24.09;46.97
40948;BME280;49382;-25.924;28.194;2023-02-15T08:55:58;84861.82;;;25.71;45.29
40948;BME280;49382;-25.924;28.194;2023-02-15T08:58:23;84857.19;;;24.47;46.60
40948;BME280;49382;-25.924;28.194;2023-02-15T09:00:48;84857.01;;;24.91;44.95
40948;BME280;49382;-25.924;28.194;2023-02-15T09:03:14;84853.02;;;26.76;42.15
40948;BME280;49382;-25.924;28.194;2023-02-15T09:05:39;84851.99;;;24.46;45.76
40948;BME280;49382;-25.924;28.194;2023-02-15T09:08:05;84856.28;;;24.33;47.32
40948;BME280;49382;-25.924;28.194;2023-02-15T09:10:31;84856.20;;;23.86;46.97
40948;BME280;49382;-25.924;28.194;2023-02-15T09:12:56;84857.90;;;24.42;46.12
40948;BME280;49382;-25.924;28.194;2023-02-15T09:15:22;84852.21;;;25.80;44.23
40948;BME280;49382;-25.924;28.194;2023-02-15T09:17:48;84849.95;;;24.70;45.68
40948;BME280;49382;-25.924;28.194;2023-02-15T09:20:13;84858.33;;;24.27;45.84
40948;BME280;49382;-25.924;28.194;2023-02-15T09:22:39;84851.11;;;24.21;46.10
40948;BME280;49382;-25.924;28.194;2023-02-15T09:25:05;84847.21;;;25.41;45.24
40948;BME280;49382;-25.924;28.194;2023-02-15T09:27:30;84844.67;;;24.21;46.10
40948;BME280;49382;-25.924;28.194;2023-02-15T09:29:56;84839.19;;;23.86;47.40
40948;BME280;49382;-25.924;28.194;2023-02-15T09:32:22;84838.26;;;24.11;48.38
40948;BME280;49382;-25.924;28.194;2023-02-15T09:34:47;84837.16;;;25.01;47.55
40948;BME280;49382;-25.924;28.194;2023-02-15T09:37:12;84831.95;;;24.43;45.74
40948;BME280;49382;-25.924;28.194;2023-02-15T09:39:41;84826.49;;;24.32;44.77
40948;BME280;49382;-25.924;28.194;2023-02-15T09:44:39;84818.68;;;24.15;44.64
40948;BME280;49382;-25.924;28.194;2023-02-15T09:47:05;84811.78;;;24.47;45.33
40948;BME280;49382;-25.924;28.194;2023-02-15T09:49:28;84803.94;;;25.53;45.07
40948;BME280;49382;-25.924;28.194;2023-02-15T09:51:54;84795.00;;;25.52;44.84
40948;BME280;49382;-25.924;28.194;2023-02-15T09:54:25;84798.56;;;26.10;45.45
40948;BME280;49382;-25.924;28.194;2023-02-15T09:56:41;84794.87;;;25.66;44.65
40948;BME280;49382;-25.924;28.194;2023-02-15T09:59:07;84793.60;;;24.78;46.70
40948;BME280;49382;-25.924;28.194;2023-02-15T10:01:34;84790.08;;;25.57;44.21
40948;BME280;49382;-25.924;28.194;2023-02-15T10:04:05;84793.20;;;24.72;45.48
40948;BME280;49382;-25.924;28.194;2023-02-15T10:08:58;84792.78;;;24.51;43.74
40948;BME280;49382;-25.924;28.194;2023-02-15T10:11:15;84788.60;;;24.29;42.56
40948;BME280;49382;-25.924;28.194;2023-02-15T10:13:40;84785.24;;;24.88;42.04
40948;BME280;49382;-25.924;28.194;2023-02-15T10:16:12;84774.25;;;25.15;42.25
40948;BME280;49382;-25.924;28.194;2023-02-15T10:18:33;84770.46;;;25.86;43.31
40948;BME280;49382;-25.924;28.194;2023-02-15T10:20:57;84766.81;;;24.95;44.94
40948;BME280;49382;-25.924;28.194;2023-02-15T10:25:45;84775.18;;;24.66;45.94
40948;BME280;49382;-25.924;28.194;2023-02-15T10:28:09;84767.62;;;24.56;43.62
40948;BME280;49382;-25.924;28.194;2023-02-15T10:30:38;84773.50;;;26.53;41.59
40948;BME280;49382;-25.924;28.194;2023-02-15T10:33:00;84764.08;;;25.61;41.93
40948;BME280;49382;-25.924;28.194;2023-02-15T10:35:26;84759.73;;;25.66;42.89
40948;BME280;49382;-25.924;28.194;2023-02-15T10:37:56;84753.70;;;24.77;44.57
40948;BME280;49382;-25.924;28.194;2023-02-15T10:40:19;84754.93;;;24.19;45.21
40948;BME280;49382;-25.924;28.194;2023-02-15T10:42:47;84749.72;;;25.09;45.83
40948;BME280;49382;-25.924;28.194;2023-02-15T10:45:13;84746.30;;;23.90;45.77
40948;BME280;49382;-25.924;28.194;2023-02-15T10:47:41;84742.06;;;24.54;45.31
40948;BME280;49382;-25.924;28.194;2023-02-15T10:50:08;84737.61;;;25.34;44.49
40948;BME280;49382;-25.924;28.194;2023-02-15T10:52:29;84734.11;;;25.10;43.25
40948;BME280;49382;-25.924;28.194;2023-02-15T10:54:51;84731.17;;;24.74;42.81
40948;BME280;49382;-25.924;28.194;2023-02-15T10:57:18;84732.79;;;24.67;42.61
40948;BME280;49382;-25.924;28.194;2023-02-15T10:59:47;84729.48;;;24.61;44.07
40948;BME280;49382;-25.924;28.194;2023-02-15T11:02:07;84729.36;;;25.30;42.04
40948;BME280;49382;-25.924;28.194;2023-02-15T11:04:39;84721.94;;;24.87;43.28
40948;BME280;49382;-25.924;28.194;2023-02-15T11:06:56;84716.58;;;26.04;42.63
40948;BME280;49382;-25.924;28.194;2023-02-15T11:09:20;84716.69;;;27.24;39.74
40948;BME280;49382;-25.924;28.194;2023-02-15T11:11:48;84707.50;;;26.25;41.20
40948;BME280;49382;-25.924;28.194;2023-02-15T11:14:17;84704.48;;;25.82;42.41
40948;BME280;49382;-25.924;28.194;2023-02-15T11:16:38;84695.47;;;25.52;41.72
40948;BME280;49382;-25.924;28.194;2023-02-15T11:19:06;84694.92;;;25.76;41.47
40948;BME280;49382;-25.924;28.194;2023-02-15T11:21:29;84689.93;;;25.48;41.35
40948;BME280;49382;-25.924;28.194;2023-02-15T11:23:53;84686.28;;;25.78;40.80
40948;BME280;49382;-25.924;28.194;2023-02-15T11:26:24;84685.92;;;25.42;41.15
40948;BME280;49382;-25.924;28.194;2023-02-15T11:28:49;84682.97;;;25.13;41.53
40948;BME280;49382;-25.924;28.194;2023-02-15T11:31:15;84672.20;;;25.34;41.40
40948;BME280;49382;-25.924;28.194;2023-02-15T11:33:39;84668.97;;;25.10;40.80
40948;BME280;49382;-25.924;28.194;2023-02-15T11:36:06;84660.53;;;24.65;40.83
40948;BME280;49382;-25.924;28.194;2023-02-15T11:38:31;84655.78;;;25.48;40.45
40948;BME280;49382;-25.924;28.194;2023-02-15T11:40:56;84658.94;;;26.19;40.07
40948;BME280;49382;-25.924;28.194;2023-02-15T11:43:23;84650.97;;;26.60;38.47
40948;BME280;49382;-25.924;28.194;2023-02-15T11:45:46;84654.55;;;26.73;39.52
40948;BME280;49382;-25.924;28.194;2023-02-15T11:48:13;84643.16;;;25.18;40.99
40948;BME280;49382;-25.924;28.194;2023-02-15T11:50:37;84640.50;;;25.04;42.15
40948;BME280;49382;-25.924;28.194;2023-02-15T11:53:03;84636.59;;;24.45;41.94
40948;BME280;49382;-25.924;28.194;2023-02-15T11:55:28;84640.08;;;25.18;41.27
40948;BME280;49382;-25.924;28.194;2023-02-15T11:57:56;84626.34;;;24.88;41.85
40948;BME280;49382;-25.924;28.194;2023-02-15T12:00:28;84627.08;;;25.01;40.80
40948;BME280;49382;-25.924;28.194;2023-02-15T12:02:46;84621.25;;;25.62;41.25
40948;BME280;49382;-25.924;28.194;2023-02-15T12:05:14;84619.54;;;25.63;40.73
40948;BME280;49382;-25.924;28.194;2023-02-15T12:07:37;84612.37;;;25.04;44.06
40948;BME280;49382;-25.924;28.194;2023-02-15T12:10:10;84609.50;;;24.69;42.76
40948;BME280;49382;-25.924;28.194;2023-02-15T12:12:29;84603.22;;;26.07;40.73
40948;BME280;49382;-25.924;28.194;2023-02-15T12:14:54;84601.26;;;25.55;40.62
40948;BME280;49382;-25.924;28.194;2023-02-15T12:17:23;84596.22;;;25.81;39.94
40948;BME280;49382;-25.924;28.194;2023-02-15T12:19:45;84598.61;;;25.55;41.44
40948;BME280;49382;-25.924;28.194;2023-02-15T12:22:19;84596.31;;;25.15;40.99
40948;BME280;49382;-25.924;28.194;2023-02-15T12:24:38;84591.27;;;24.73;40.97
40948;BME280;49382;-25.924;28.194;2023-02-15T12:27:05;84590.37;;;25.15;41.89
40948;BME280;49382;-25.924;28.194;2023-02-15T12:29:31;84593.97;;;25.76;41.31
40948;BME280;49382;-25.924;28.194;2023-02-15T12:31:53;84584.88;;;25.84;41.60
40948;BME280;49382;-25.924;28.194;2023-02-15T12:34:22;84576.56;;;25.98;41.58
40948;BME280;49382;-25.924;28.194;2023-02-15T12:36:47;84569.74;;;25.93;41.81
40948;BME280;49382;-25.924;28.194;2023-02-15T12:39:17;84560.46;;;25.23;40.13
40948;BME280;49382;-25.924;28.194;2023-02-15T12:41:37;84560.93;;;25.29;41.71
40948;BME280;49382;-25.924;28.194;2023-02-15T12:44:09;84554.00;;;25.38;41.10
40948;BME280;49382;-25.924;28.194;2023-02-15T12:46:27;84556.53;;;25.30;42.17